Tzoanna Vi — SYHY — position and weather

sailwx.info

Track history (hours):
 
Tides and Currents Weather Stations Pressure Air Temp Water Temp Dewpoint Dewpoint Depression Visibility Wind Speed Wind Dir Waves Ship Positions

Tzoanna Vi

Last reported at 2016-Aug-23 17:10 UTC. Time now 2016-Aug-24 01:33 UTC.
Position N 38°23' E 023°41'.

Length 84 m; draft 3.6 m.

Type: Cargo ship. MMSI: 237991700.

Date/timePositionNaut miles runAvg speedWind from/ knotsBaromVisibWave heightAir tempDewpointWater temp
2016-Aug-23 17:10N 38°23' E 023°41'5 8.9
2016-Aug-23 16:33N 38°22' E 023°48'3 0.2
2016-Aug-22 23:08N 38°22' E 023°52'710.4
2016-Aug-22 22:30N 38°23' E 023°43'  
2016-Aug-20 14:30N 38°23' E 023°41'8 8.5
2016-Aug-20 13:33N 38°22' E 023°51'0 0.0
2016-Aug-19 21:31N 38°22' E 023°50'  
2016-Aug-17 17:22N 38°24' E 023°39'7 8.8
2016-Aug-17 16:33N 38°22' E 023°48'19 0.5
2016-Aug-16 03:32N 38°09' E 024°05'9 9.5
2016-Aug-16 02:33N 38°00' E 024°06'9 8.9
2016-Aug-16 01:33N 37°51' E 024°07'9 8.7
2016-Aug-16 00:33N 37°43' E 024°06'10 9.4
2016-Aug-15 23:33N 37°36' E 023°56'1010.0
2016-Aug-15 22:33N 37°37' E 023°44'1110.7
2016-Aug-15 21:33N 37°47' E 023°38'9 9.4
2016-Aug-15 20:33N 37°50' E 023°27'1110.5
2016-Aug-15 19:33N 37°52' E 023°14'10 9.7
2016-Aug-15 18:32N 37°55' E 023°02'0 0.2
2016-Aug-15 17:33N 37°55' E 023°02'0 0.0
2016-Aug-15 16:33N 37°55' E 023°02'0 0.0
2016-Aug-15 15:32N 37°55' E 023°02'0 0.0
2016-Aug-15 14:34N 37°55' E 023°02'0 0.0
2016-Aug-15 13:33N 37°55' E 023°02'0 0.0
2016-Aug-15 12:33N 37°55' E 023°02'0 0.0
2016-Aug-15 11:32N 37°55' E 023°02'0 0.0
2016-Aug-15 10:33N 37°55' E 023°02'0 0.0
2016-Aug-15 09:33N 37°55' E 023°02'0 0.0
2016-Aug-15 08:29N 37°55' E 023°02'0 0.0
2016-Aug-15 07:33N 37°55' E 023°02'0 0.0
2016-Aug-15 06:31N 37°55' E 023°02'0 0.0
2016-Aug-15 04:33N 37°55' E 023°02'0 0.0
2016-Aug-15 03:33N 37°55' E 023°02'0 0.0
2016-Aug-15 02:32N 37°55' E 023°02'0 0.0
2016-Aug-15 01:33N 37°55' E 023°02'0 0.0
2016-Aug-15 00:33N 37°55' E 023°02'0 0.0
2016-Aug-14 23:33N 37°55' E 023°02'0 0.0
2016-Aug-14 22:33N 37°55' E 023°02'0 0.0
2016-Aug-14 21:33N 37°55' E 023°02'0 0.0
2016-Aug-14 20:31N 37°55' E 023°02'0 0.0
2016-Aug-14 19:33N 37°55' E 023°02'0 0.0
2016-Aug-14 18:33N 37°55' E 023°02'0 0.0
2016-Aug-14 17:32N 37°55' E 023°02'0 0.0
2016-Aug-14 16:33N 37°55' E 023°02'0 0.0
2016-Aug-14 15:33N 37°55' E 023°02'0 0.0
2016-Aug-14 14:33N 37°55' E 023°02'0 0.0
2016-Aug-14 13:33N 37°55' E 023°02'0 0.0
2016-Aug-14 12:32N 37°55' E 023°02'1 1.0
2016-Aug-14 11:30N 37°54' E 023°02'8 8.7
2016-Aug-14 10:33N 37°50' E 023°11'9 8.8
2016-Aug-14 09:33N 37°43' E 023°17'8 8.0
2016-Aug-14 08:33N 37°40' E 023°27'9 9.2
2016-Aug-14 07:33N 37°39' E 023°38'9 8.9
2016-Aug-14 06:33N 37°38' E 023°49'18 7.5
2016-Aug-14 04:11N 37°50' E 024°06'6 9.7
2016-Aug-14 03:33N 37°56' E 024°06'9 9.5
2016-Aug-14 02:33N 38°05' E 024°06'19 8.5
2016-Aug-14 00:18N 38°21' E 023°51'7 9.1
2016-Aug-13 23:33N 38°23' E 023°43'  
Track history (hours):
 
Tides and Currents Weather Stations Pressure Air Temp Water Temp Dewpoint Dewpoint Depression Visibility Wind Speed Wind Dir Waves Ship Positions

Tzoanna Vi

Last reported at 2016-Aug-23 17:10 UTC. Time now 2016-Aug-24 01:33 UTC.
Position N 38°23' E 023°41'.

Length 84 m; draft 3.6 m.

Type: Cargo ship. MMSI: 237991700.

Date/timePositionNaut miles runAvg speedWind from/ knotsBaromVisibWave heightAir tempDewpointWater temp
2016-Aug-23 17:10N 38°23' E 023°41'5 8.9
2016-Aug-23 16:33N 38°22' E 023°48'3 0.2
2016-Aug-22 23:08N 38°22' E 023°52'710.4
2016-Aug-22 22:30N 38°23' E 023°43'  
2016-Aug-20 14:30N 38°23' E 023°41'8 8.5
2016-Aug-20 13:33N 38°22' E 023°51'0 0.0
2016-Aug-19 21:31N 38°22' E 023°50'  
2016-Aug-17 17:22N 38°24' E 023°39'7 8.8
2016-Aug-17 16:33N 38°22' E 023°48'19 0.5
2016-Aug-16 03:32N 38°09' E 024°05'9 9.5
2016-Aug-16 02:33N 38°00' E 024°06'9 8.9
2016-Aug-16 01:33N 37°51' E 024°07'9 8.7
2016-Aug-16 00:33N 37°43' E 024°06'10 9.4
2016-Aug-15 23:33N 37°36' E 023°56'1010.0
2016-Aug-15 22:33N 37°37' E 023°44'1110.7
2016-Aug-15 21:33N 37°47' E 023°38'9 9.4
2016-Aug-15 20:33N 37°50' E 023°27'1110.5
2016-Aug-15 19:33N 37°52' E 023°14'10 9.7
2016-Aug-15 18:32N 37°55' E 023°02'0 0.2
2016-Aug-15 17:33N 37°55' E 023°02'0 0.0
2016-Aug-15 16:33N 37°55' E 023°02'0 0.0
2016-Aug-15 15:32N 37°55' E 023°02'0 0.0
2016-Aug-15 14:34N 37°55' E 023°02'0 0.0
2016-Aug-15 13:33N 37°55' E 023°02'0 0.0
2016-Aug-15 12:33N 37°55' E 023°02'0 0.0
2016-Aug-15 11:32N 37°55' E 023°02'0 0.0
2016-Aug-15 10:33N 37°55' E 023°02'0 0.0
2016-Aug-15 09:33N 37°55' E 023°02'0 0.0
2016-Aug-15 08:29N 37°55' E 023°02'0 0.0
2016-Aug-15 07:33N 37°55' E 023°02'0 0.0
2016-Aug-15 06:31N 37°55' E 023°02'0 0.0
2016-Aug-15 04:33N 37°55' E 023°02'0 0.0
2016-Aug-15 03:33N 37°55' E 023°02'0 0.0
2016-Aug-15 02:32N 37°55' E 023°02'0 0.0
2016-Aug-15 01:33N 37°55' E 023°02'0 0.0
2016-Aug-15 00:33N 37°55' E 023°02'0 0.0
2016-Aug-14 23:33N 37°55' E 023°02'0 0.0
2016-Aug-14 22:33N 37°55' E 023°02'0 0.0
2016-Aug-14 21:33N 37°55' E 023°02'0 0.0
2016-Aug-14 20:31N 37°55' E 023°02'0 0.0
2016-Aug-14 19:33N 37°55' E 023°02'0 0.0
2016-Aug-14 18:33N 37°55' E 023°02'0 0.0
2016-Aug-14 17:32N 37°55' E 023°02'0 0.0
2016-Aug-14 16:33N 37°55' E 023°02'0 0.0
2016-Aug-14 15:33N 37°55' E 023°02'0 0.0
2016-Aug-14 14:33N 37°55' E 023°02'0 0.0
2016-Aug-14 13:33N 37°55' E 023°02'0 0.0
2016-Aug-14 12:32N 37°55' E 023°02'1 1.0
2016-Aug-14 11:30N 37°54' E 023°02'8 8.7
2016-Aug-14 10:33N 37°50' E 023°11'9 8.8
2016-Aug-14 09:33N 37°43' E 023°17'8 8.0
2016-Aug-14 08:33N 37°40' E 023°27'9 9.2
2016-Aug-14 07:33N 37°39' E 023°38'9 8.9
2016-Aug-14 06:33N 37°38' E 023°49'18 7.5
2016-Aug-14 04:11N 37°50' E 024°06'6 9.7
2016-Aug-14 03:33N 37°56' E 024°06'9 9.5
2016-Aug-14 02:33N 38°05' E 024°06'19 8.5
2016-Aug-14 00:18N 38°21' E 023°51'7 9.1
2016-Aug-13 23:33N 38°23' E 023°43'  

Dump ship's entire track history